East Baffin - northern half: Past 24 Hour Conditions

 

Rankin Inlet Airport

11:00 PM CST 26 November 2014
This table is a summary of hourly weather conditions for the past 24 hours.
Date / Time
(CST)
Wind(knots) Conditions Visibility(km) Pressure(kPa) Air tempC) Relative humidity(%) Dew pointC) Wind Chill
26 November 2014
23:00 NW 13 Light Snow 24 101.0 -26 71 -29 -39
22:00 WNW 14 Light Snow 24 101.0 -24 73 -28 -37
21:00 WNW 13 Snow Grains 24 100.9 -23 73 -26 -35
20:00 WNW 15 Light Snow 19 101.0 -22 74 -25 -34
19:00 W 17 Light Snow 19 101.0 -21 74 -24 -34
18:00 WSW 16 Light Snow 16 101.0 -21 74 -25 -34
17:00 W 17 gust 23 Light Snow 10 101.1 -21 74 -25 -34
16:00 W 22 Ice Crystals 24 101.1 -21 73 -25 -36
15:00 WSW 15 Ice Crystals 24 101.2 -22 72 -26 -34
14:00 W 19 Ice Crystals 24 101.2 -22 70 -26 -36
13:00 W 18 Ice Crystals 24 101.2 -23 69 -27 -36
12:00 W 16 gust 22 Ice Crystals 24 101.3 -23 69 -27 -36
11:00 W 15 gust 20 Ice Crystals 24 101.4 -22 69 -27 -35
10:00 W 15 Ice Crystals 24 101.4 -23 70 -27 -36
9:00 WSW 11 Ice Crystals 24 101.5 -23 70 -27 -34
8:00 WSW 6 Ice Crystals 24 101.5 -24 71 -28 -33
7:00 WNW 8 Ice Crystals 24 101.6 -25 67 -30 -35
6:00 NW 7 Ice Crystals 24 101.6 -26 69 -31 -36
5:00 NNW 14 gust 21 Ice Crystals 24 101.6 -26 69 -30 -40
4:00 NNW 17 Ice Crystals 24 101.6 -27 70 -30 -41
3:00 NNW 16 Ice Crystals 24 101.6 -27 70 -31 -41
2:00 NNW 23 Ice Crystals 24 101.5 -27 70 -31 -44
1:00 NNW 22 gust 28 Ice Crystals 24 101.4 -27 71 -31 -43
0:00 NNW 25 Ice Crystals 24 101.3 -27 70 -31 -45
25 November 2014
23:00 NNW 22 Ice Crystals 24 101.3 -28 70 -32 -44
 
Map of Arctic - Eastern Arctic marine weather areas Baker Lake Airport Chesterfield Inlet Airport Coral Harbour Airport Gjoa Haven Airport Kugaaruk Airport Rankin Inlet Airport Shepherd Bay Airport Whale Cove Airport Arctic Bay Brevoort Island Qikiqtarjuaq Airport Cape Dorset Airport Cape Dyer Cape Hooper Clyde Airport Grise Fiord Airport Hall Beach Airport Igloolik Airport Iqaluit Airport Longstaff Bluff Pangnirtung Airport Pond Inlet Airport Repulse Bay Airport Resolute Airport Resolution Island Rowley Island Airport Taloyoak Airport Wager Bay Akulivik Airport Ivujivik Airport Puvirnituq Airport Kangiqsujuaq Airport Kangirsuk Airport Quaqtaq Airport Tasiujaq Airport Cape Kakkiviak Cape Kiglapait Nain Airport Saglek Cape Mercy Kimmirut Airport Aupaluk Airport Salluit Airport Kangiqsualujjuaq Airport Fort Ross
Legend: buoyBuoy land stationLand Station